Nápoli / Capodichino International Airport LIRN

Flugplatz Daten

Name: Nápoli / Capodichino International Airport

Ident: LIRN

Lat: 40,88600159

Long: 14,29080009

Platzhöhe: 294 ft

IataCode: NAP

City: Nápoli

Homepage: http://www.portal.gesac.it/

Metar

2021/08/05 13:20
LIRN 051320Z 29014KT 9999 SCT035 27/17 Q1012 NOSIG

Taf

2021/08/05 12:00
TAF LIRN 051100Z 0512/0612 28015KT 9999 FEW040
BECMG 0519/0521 VRB05KT
BECMG 0607/0609 25012KT
Gewünschte Webcam nicht vorhanden? Dann fügen Sie eine hinzu. Sie wird dann so schnell wie möglich freigeschaltet
Url: Title: